createdAt,value
2023-04-15T00:02:00.064Z,79.39
2023-04-15T00:04:27.615Z,79.91
2023-04-15T00:06:54.695Z,79.50
2023-04-15T00:09:21.630Z,80.29
2023-04-15T00:11:48.148Z,79.69
2023-04-15T00:14:14.673Z,79.42
2023-04-15T00:16:41.462Z,79.67
2023-04-15T00:19:08.019Z,79.96
2023-04-15T00:21:35.000Z,79.69
2023-04-15T00:24:01.881Z,79.57
2023-04-15T00:26:28.545Z,79.41
2023-04-15T00:28:55.019Z,79.55
2023-04-15T00:31:21.864Z,79.50
2023-04-15T00:33:48.710Z,79.49
2023-04-15T00:36:15.558Z,80.35
2023-04-15T00:38:42.181Z,80.42
2023-04-15T00:41:10.375Z,80.28
2023-04-15T00:43:37.042Z,79.94
2023-04-15T00:46:05.928Z,80.24
2023-04-15T00:48:32.487Z,80.75
2023-04-15T00:50:59.192Z,80.47
2023-04-15T00:53:25.827Z,81.03
2023-04-15T00:55:52.710Z,81.14
2023-04-15T00:58:19.348Z,81.17
2023-04-15T01:00:46.774Z,80.75
2023-04-15T01:03:14.206Z,80.80
2023-04-15T01:05:41.633Z,81.11
2023-04-15T01:08:08.274Z,81.49
2023-04-15T01:10:35.988Z,81.51
2023-04-15T01:13:03.397Z,81.46
2023-04-15T01:15:30.672Z,81.47
2023-04-15T01:17:59.573Z,81.66
2023-04-15T01:20:27.558Z,81.22
2023-04-15T01:22:54.997Z,81.14
2023-04-15T01:25:33.106Z,81.56
2023-04-15T01:28:00.608Z,81.17
2023-04-15T01:30:27.191Z,80.95
2023-04-15T01:32:54.267Z,81.52
2023-04-15T01:35:21.489Z,81.83
2023-04-15T01:37:48.579Z,81.98
2023-04-15T01:40:15.359Z,81.78
2023-04-15T01:42:43.903Z,82.33
2023-04-15T01:45:13.000Z,82.00
2023-04-15T01:47:40.088Z,82.00
2023-04-15T01:50:06.983Z,82.86
2023-04-15T01:52:33.842Z,82.22
2023-04-15T01:55:00.398Z,82.48
2023-04-15T01:57:27.022Z,82.21
2023-04-15T01:59:53.438Z,82.51
2023-04-15T02:02:20.348Z,82.51
2023-04-15T02:04:46.920Z,82.55
2023-04-15T02:07:13.445Z,83.55
2023-04-15T02:09:39.942Z,84.18
2023-04-15T02:12:06.405Z,83.89
2023-04-15T02:14:32.890Z,83.34
2023-04-15T02:17:07.056Z,83.50
2023-04-15T02:19:34.517Z,84.17
2023-04-15T02:22:02.128Z,83.99
2023-04-15T02:24:29.515Z,84.14
2023-04-15T02:26:56.254Z,84.17
2023-04-15T02:29:25.939Z,84.34
2023-04-15T02:31:52.440Z,84.32
2023-04-15T02:34:18.984Z,84.79
2023-04-15T02:36:47.491Z,85.32
2023-04-15T02:39:16.764Z,85.87
2023-04-15T02:41:43.893Z,86.39
2023-04-15T02:44:12.905Z,86.36
2023-04-15T02:46:41.199Z,89.05
2023-04-15T02:49:08.538Z,88.73
2023-04-15T02:51:35.088Z,88.77
2023-04-15T02:54:01.565Z,91.16
2023-04-15T02:56:28.115Z,89.75
2023-04-15T02:58:56.161Z,90.77
2023-04-15T03:01:22.735Z,91.26
2023-04-15T03:03:49.309Z,92.07
2023-04-15T03:06:15.862Z,91.46
2023-04-15T03:08:42.332Z,90.92
2023-04-15T03:11:08.815Z,92.23
2023-04-15T03:13:35.291Z,92.73
2023-04-15T03:16:01.815Z,92.29
2023-04-15T03:18:29.280Z,92.54
2023-04-15T03:20:55.842Z,93.45
2023-04-15T03:23:22.272Z,94.08
2023-04-15T03:25:48.730Z,92.92
2023-04-15T03:28:15.214Z,94.12
2023-04-15T03:30:41.927Z,95.01
2023-04-15T03:33:08.666Z,97.16
2023-04-15T03:35:35.398Z,95.39
2023-04-15T03:38:01.967Z,95.71
2023-04-15T03:40:28.479Z,96.05
2023-04-15T03:42:55.001Z,96.24
2023-04-15T03:45:21.485Z,97.15
2023-04-15T03:47:48.115Z,98.71
2023-04-15T03:50:14.586Z,95.54
2023-04-15T03:52:41.170Z,96.48
2023-04-15T03:55:08.497Z,97.08
2023-04-15T03:57:38.145Z,98.37
2023-04-15T04:00:06.253Z,97.12
2023-04-15T04:02:32.866Z,96.58
2023-04-15T04:04:59.547Z,96.44
2023-04-15T04:07:26.122Z,97.08
2023-04-15T04:09:52.809Z,97.60
2023-04-15T04:12:19.331Z,99.45
2023-04-15T04:14:45.854Z,99.88
2023-04-15T04:17:12.333Z,99.10
2023-04-15T04:19:38.832Z,98.18
2023-04-15T04:22:05.293Z,98.68
2023-04-15T04:24:32.097Z,98.35
2023-04-15T04:26:58.599Z,99.15
2023-04-15T04:29:25.164Z,99.00
2023-04-15T04:31:51.708Z,100.00
2023-04-15T04:34:18.279Z,99.84
2023-04-15T04:36:44.834Z,99.38
2023-04-15T04:39:11.337Z,100.00
2023-04-15T04:41:37.874Z,100.00
2023-04-15T04:44:04.428Z,99.12
2023-04-15T04:46:31.193Z,100.00
2023-04-15T04:48:57.724Z,99.86
2023-04-15T04:51:24.268Z,100.00
2023-04-15T04:53:50.908Z,100.00
2023-04-15T04:56:17.413Z,99.24
2023-04-15T04:58:43.931Z,100.00
2023-04-15T05:01:10.660Z,100.00
2023-04-15T05:03:38.100Z,100.00
2023-04-15T05:06:07.320Z,99.34
2023-04-15T05:08:33.827Z,100.00
2023-04-15T05:11:00.581Z,99.71
2023-04-15T05:13:27.098Z,100.00
2023-04-15T05:15:53.615Z,100.00
2023-04-15T05:18:20.585Z,100.00
2023-04-15T05:20:47.210Z,100.00
2023-04-15T05:23:16.008Z,100.00
2023-04-15T05:25:42.561Z,100.00
2023-04-15T05:28:09.050Z,98.93
2023-04-15T05:30:35.578Z,99.75
2023-04-15T05:33:02.138Z,99.72
2023-04-15T05:35:28.722Z,100.00
2023-04-15T05:37:55.196Z,100.00
2023-04-15T05:40:22.301Z,100.00
2023-04-15T05:42:48.943Z,100.00
2023-04-15T05:45:15.393Z,100.00
2023-04-15T05:47:41.895Z,100.00
2023-04-15T05:50:08.723Z,100.00
2023-04-15T05:52:35.405Z,100.00
2023-04-15T05:55:02.040Z,100.00
2023-04-15T05:57:28.528Z,100.00
2023-04-15T05:59:57.206Z,100.00
2023-04-15T06:02:23.736Z,100.00
2023-04-15T06:04:50.432Z,100.00
2023-04-15T06:07:16.982Z,100.00
2023-04-15T06:09:43.477Z,100.00
2023-04-15T06:12:12.344Z,100.00
2023-04-15T06:14:40.531Z,99.98
2023-04-15T06:17:07.588Z,100.00
2023-04-15T06:19:36.586Z,100.00
2023-04-15T06:22:03.636Z,100.00
2023-04-15T06:24:30.477Z,100.00
2023-04-15T06:26:57.589Z,100.00
2023-04-15T06:29:24.029Z,100.00
2023-04-15T06:31:51.177Z,100.00
2023-04-15T06:34:17.867Z,99.60
2023-04-15T06:36:44.323Z,99.91
2023-04-15T06:39:10.854Z,99.65
2023-04-15T06:41:38.959Z,100.00
2023-04-15T06:44:05.802Z,99.20
2023-04-15T06:46:32.716Z,99.44
2023-04-15T06:48:59.347Z,100.00
2023-04-15T06:51:26.837Z,100.00
2023-04-15T06:53:53.454Z,100.00
2023-04-15T06:56:19.945Z,99.67
2023-04-15T06:58:47.269Z,99.86
2023-04-15T07:01:14.181Z,99.92
2023-04-15T07:03:41.869Z,99.88
2023-04-15T07:06:09.417Z,100.00
2023-04-15T07:08:35.890Z,100.00
2023-04-15T07:11:02.482Z,100.00
2023-04-15T07:13:31.823Z,100.00
2023-04-15T07:15:58.755Z,100.00
2023-04-15T07:18:25.556Z,100.00
2023-04-15T07:20:52.174Z,100.00
2023-04-15T07:23:18.633Z,100.00
2023-04-15T07:25:45.066Z,100.00
2023-04-15T07:28:11.506Z,100.00
2023-04-15T07:30:38.337Z,100.00
2023-04-15T07:33:05.013Z,100.00
2023-04-15T07:35:31.664Z,100.00
2023-04-15T07:37:58.249Z,100.00
2023-04-15T07:40:24.784Z,100.00
2023-04-15T07:42:51.487Z,100.00
2023-04-15T07:45:18.144Z,100.00
2023-04-15T07:47:44.736Z,100.00
2023-04-15T07:50:11.469Z,100.00
2023-04-15T07:52:41.366Z,100.00
2023-04-15T07:55:08.813Z,100.00
2023-04-15T07:57:36.231Z,100.00
2023-04-15T08:00:07.520Z,100.00
2023-04-15T08:02:36.310Z,100.00
2023-04-15T08:05:04.528Z,100.00
2023-04-15T08:07:31.259Z,100.00
2023-04-15T08:09:57.737Z,100.00
2023-04-15T08:12:24.261Z,100.00
2023-04-15T08:14:51.875Z,100.00
2023-04-15T08:17:18.473Z,100.00
2023-04-15T08:19:45.240Z,100.00
2023-04-15T08:22:17.974Z,100.00
2023-04-15T08:24:45.733Z,100.00
2023-04-15T08:27:12.234Z,100.00
2023-04-15T08:29:39.051Z,100.00
2023-04-15T08:32:06.369Z,100.00
2023-04-15T08:34:32.974Z,100.00
2023-04-15T08:36:59.473Z,100.00
2023-04-15T08:39:26.279Z,100.00
2023-04-15T08:42:01.765Z,100.00
2023-04-15T08:44:34.512Z,100.00
2023-04-15T08:47:02.463Z,100.00
2023-04-15T08:49:29.735Z,99.77
2023-04-15T08:51:58.913Z,100.00
2023-04-15T08:54:27.113Z,100.00
2023-04-15T08:56:54.473Z,100.00
2023-04-15T08:59:22.214Z,99.82
2023-04-15T09:01:51.185Z,99.36
2023-04-15T09:04:18.239Z,99.54
2023-04-15T09:06:44.889Z,99.43
2023-04-15T09:09:13.085Z,99.58
2023-04-15T09:11:39.650Z,99.68
2023-04-15T09:14:06.186Z,99.79
2023-04-15T09:16:53.166Z,100.00
2023-04-15T09:19:24.418Z,100.00
2023-04-15T09:21:58.010Z,100.00
2023-04-15T09:24:27.135Z,99.20
2023-04-15T09:26:55.435Z,98.96
2023-04-15T09:29:24.901Z,99.01
2023-04-15T09:31:51.531Z,99.46
2023-04-15T09:34:18.118Z,99.55
2023-04-15T09:36:49.127Z,99.69
2023-04-15T09:39:16.961Z,99.42
2023-04-15T09:41:44.373Z,98.98
2023-04-15T09:44:27.220Z,97.02
2023-04-15T09:46:54.022Z,97.26
2023-04-15T09:49:20.947Z,97.58
2023-04-15T09:52:01.481Z,96.98
2023-04-15T09:54:38.737Z,97.24
2023-04-15T09:57:07.334Z,97.61
2023-04-15T09:59:33.985Z,97.90
2023-04-15T10:02:01.074Z,96.21
2023-04-15T10:04:28.721Z,94.68
2023-04-15T10:06:56.815Z,94.76
2023-04-15T10:09:23.499Z,93.94
2023-04-15T10:11:50.688Z,93.32
2023-04-15T10:14:19.139Z,92.94
2023-04-15T10:16:49.046Z,92.52
2023-04-15T10:19:19.181Z,93.21
2023-04-15T10:21:46.600Z,93.90
2023-04-15T10:24:13.611Z,92.71
2023-04-15T10:26:40.868Z,92.28
2023-04-15T10:29:09.175Z,91.69
2023-04-15T10:31:38.201Z,91.83
2023-04-15T10:34:06.604Z,91.62
2023-04-15T10:36:33.403Z,91.98
2023-04-15T10:38:59.913Z,90.52
2023-04-15T10:41:29.895Z,90.81
2023-04-15T10:44:04.344Z,91.05
2023-04-15T10:46:40.077Z,90.73
2023-04-15T10:49:17.358Z,90.96
2023-04-15T10:51:51.984Z,89.24
2023-04-15T10:54:24.536Z,88.89
2023-04-15T10:57:06.751Z,89.06
2023-04-15T10:59:37.488Z,88.74
2023-04-15T11:02:05.954Z,88.95
2023-04-15T11:04:54.704Z,88.27
2023-04-15T11:07:38.418Z,86.93
2023-04-15T11:10:31.218Z,86.12
2023-04-15T11:13:03.009Z,86.64
2023-04-15T11:15:30.317Z,86.35
2023-04-15T11:17:58.142Z,85.86
2023-04-15T11:20:25.434Z,86.22
2023-04-15T11:23:13.961Z,86.79
2023-04-15T11:25:41.791Z,88.31
2023-04-15T11:28:08.602Z,88.96
2023-04-15T11:30:37.346Z,89.84
2023-04-15T11:33:06.384Z,90.01
2023-04-15T11:35:33.534Z,89.11
2023-04-15T11:38:04.093Z,88.10
2023-04-15T11:40:31.591Z,88.71
2023-04-15T11:43:07.662Z,88.38
2023-04-15T11:45:34.719Z,88.82
2023-04-15T11:48:12.047Z,87.91
2023-04-15T11:50:41.151Z,88.19
2023-04-15T11:53:09.940Z,88.11
2023-04-15T11:55:44.637Z,88.52
2023-04-15T11:58:25.145Z,88.41
2023-04-15T12:01:00.028Z,89.31
2023-04-15T12:03:29.888Z,89.34
2023-04-15T12:06:11.250Z,88.52
2023-04-15T12:08:55.966Z,88.66
2023-04-15T12:11:31.825Z,89.04
2023-04-15T12:14:20.102Z,89.45
2023-04-15T12:16:53.851Z,89.47
2023-04-15T12:19:32.444Z,89.83
2023-04-15T12:22:04.241Z,89.95
2023-04-15T12:24:36.267Z,89.83
2023-04-15T12:27:12.110Z,89.19
2023-04-15T12:29:40.244Z,89.20
2023-04-15T12:32:14.588Z,89.30
2023-04-15T12:34:43.169Z,89.02
2023-04-15T12:37:12.027Z,87.87
2023-04-15T12:39:41.527Z,87.63
2023-04-15T12:42:09.112Z,87.95
2023-04-15T12:44:36.776Z,89.41
2023-04-15T12:47:03.888Z,88.40
2023-04-15T12:49:32.578Z,88.61
2023-04-15T12:52:01.068Z,89.01
2023-04-15T12:54:28.568Z,89.70
2023-04-15T12:56:56.107Z,89.86
2023-04-15T12:59:24.291Z,90.40
2023-04-15T13:01:52.506Z,89.55
2023-04-15T13:04:20.931Z,89.96
2023-04-15T13:06:47.811Z,90.04
2023-04-15T13:09:15.707Z,90.03
2023-04-15T13:11:42.697Z,90.57
2023-04-15T13:14:11.316Z,90.52
2023-04-15T13:16:37.833Z,90.02
2023-04-15T13:19:04.541Z,89.09
2023-04-15T13:21:35.160Z,89.22
2023-04-15T13:24:03.017Z,89.08
2023-04-15T13:26:29.777Z,88.54
2023-04-15T13:28:56.712Z,87.97
2023-04-15T13:31:23.432Z,88.03
2023-04-15T13:33:49.925Z,88.77
2023-04-15T13:36:16.599Z,88.77
2023-04-15T13:38:43.247Z,88.57
2023-04-15T13:41:09.826Z,88.04
2023-04-15T13:43:36.676Z,87.82
2023-04-15T13:46:03.425Z,88.90
2023-04-15T13:48:30.137Z,88.22
2023-04-15T13:50:56.590Z,88.11
2023-04-15T13:53:38.541Z,89.11
2023-04-15T13:56:07.508Z,89.02
2023-04-15T13:58:34.322Z,89.21
2023-04-15T14:01:02.578Z,89.79
2023-04-15T14:03:30.647Z,89.51
2023-04-15T14:05:58.116Z,89.47
2023-04-15T14:08:25.268Z,88.65
2023-04-15T14:10:51.804Z,88.41
2023-04-15T14:13:19.549Z,88.31
2023-04-15T14:15:46.888Z,88.97
2023-04-15T14:18:13.402Z,88.75
2023-04-15T14:20:39.931Z,89.43
2023-04-15T14:23:06.493Z,89.05
2023-04-15T14:25:34.066Z,89.85
2023-04-15T14:28:01.583Z,89.98
2023-04-15T14:30:28.171Z,90.06
2023-04-15T14:32:54.798Z,89.88
2023-04-15T14:35:21.607Z,90.13
2023-04-15T14:37:48.196Z,90.63
2023-04-15T14:40:14.645Z,91.75
2023-04-15T14:42:41.168Z,91.82
2023-04-15T14:45:08.515Z,90.80
2023-04-15T14:47:35.719Z,91.37
2023-04-15T14:50:02.597Z,91.96
2023-04-15T14:52:30.673Z,91.91
2023-04-15T14:54:57.162Z,92.34
2023-04-15T14:57:23.598Z,92.30
2023-04-15T14:59:50.132Z,92.57
2023-04-15T15:02:26.308Z,93.87
2023-04-15T15:05:03.512Z,95.54
2023-04-15T15:07:30.272Z,96.32
2023-04-15T15:09:56.919Z,96.07
2023-04-15T15:12:23.626Z,97.19
2023-04-15T15:14:50.315Z,96.39
2023-04-15T15:17:16.788Z,97.15
2023-04-15T15:19:43.290Z,97.45
2023-04-15T15:22:09.895Z,98.12
2023-04-15T15:24:36.423Z,98.41
2023-04-15T15:27:03.145Z,99.12
2023-04-15T15:29:29.612Z,99.09
2023-04-15T15:31:56.256Z,99.04
2023-04-15T15:34:22.833Z,98.25
2023-04-15T15:36:49.468Z,98.87
2023-04-15T15:39:16.342Z,98.66
2023-04-15T15:41:42.844Z,97.76
2023-04-15T15:44:09.305Z,97.47
2023-04-15T15:46:35.987Z,97.94
2023-04-15T15:49:03.892Z,97.81
2023-04-15T15:51:30.868Z,97.64
2023-04-15T15:53:57.557Z,97.75
2023-04-15T15:56:24.273Z,99.23
2023-04-15T15:58:50.903Z,97.98
2023-04-15T16:01:17.530Z,97.49
2023-04-15T16:03:44.235Z,97.18
2023-04-15T16:06:10.900Z,97.22
2023-04-15T16:08:37.382Z,97.16
2023-04-15T16:11:03.921Z,97.21
2023-04-15T16:13:30.549Z,97.22
2023-04-15T16:15:57.122Z,97.41
2023-04-15T16:18:23.683Z,97.39
2023-04-15T16:20:50.398Z,97.56
2023-04-15T16:23:17.110Z,97.37
2023-04-15T16:25:44.767Z,97.69
2023-04-15T16:28:25.199Z,97.54
2023-04-15T16:30:53.641Z,98.09
2023-04-15T16:33:20.391Z,98.14
2023-04-15T16:35:47.116Z,97.96
2023-04-15T16:38:13.645Z,98.04
2023-04-15T16:40:40.477Z,98.13
2023-04-15T16:43:08.193Z,97.90
2023-04-15T16:45:34.829Z,98.23
2023-04-15T16:48:01.399Z,98.99
2023-04-15T16:50:28.303Z,99.55
2023-04-15T16:52:55.149Z,98.96
2023-04-15T16:55:21.908Z,99.24
2023-04-15T16:57:48.802Z,99.90
2023-04-15T17:00:29.765Z,100.00
2023-04-15T17:02:56.407Z,100.00
2023-04-15T17:05:23.124Z,100.00
2023-04-15T17:07:49.691Z,100.00
2023-04-15T17:10:16.497Z,100.00
2023-04-15T17:12:43.082Z,100.00
2023-04-15T17:15:10.227Z,100.00
2023-04-15T17:17:36.869Z,100.00
2023-04-15T17:20:04.263Z,100.00
2023-04-15T17:22:30.952Z,100.00
2023-04-15T17:24:57.494Z,100.00
2023-04-15T17:27:24.754Z,100.00
2023-04-15T17:29:51.404Z,100.00
2023-04-15T17:32:18.224Z,100.00
2023-04-15T17:34:49.841Z,100.00
2023-04-15T17:37:18.135Z,100.00
2023-04-15T17:39:45.471Z,100.00
2023-04-15T17:42:13.043Z,100.00
2023-04-15T17:44:40.030Z,100.00
2023-04-15T17:47:06.973Z,100.00
2023-04-15T17:49:34.262Z,100.00
2023-04-15T17:52:01.312Z,100.00
2023-04-15T17:54:28.191Z,100.00
2023-04-15T17:56:56.601Z,100.00
2023-04-15T17:59:23.286Z,100.00
2023-04-15T18:01:50.114Z,100.00
2023-04-15T18:04:16.872Z,100.00
2023-04-15T18:06:43.527Z,100.00
2023-04-15T18:09:10.244Z,100.00
2023-04-15T18:11:38.944Z,100.00
2023-04-15T18:14:05.840Z,100.00
2023-04-15T18:16:32.621Z,100.00
2023-04-15T18:18:59.735Z,100.00
2023-04-15T18:21:27.126Z,100.00
2023-04-15T18:23:53.697Z,100.00
2023-04-15T18:26:21.565Z,100.00
2023-04-15T18:28:48.605Z,100.00
2023-04-15T18:31:15.171Z,100.00
2023-04-15T18:33:41.960Z,100.00
2023-04-15T18:36:09.498Z,100.00
2023-04-15T18:38:36.135Z,100.00
2023-04-15T18:41:03.068Z,100.00
2023-04-15T18:43:29.610Z,100.00
2023-04-15T18:45:56.506Z,100.00
2023-04-15T18:48:23.096Z,100.00
2023-04-15T18:50:53.879Z,100.00
2023-04-15T18:53:21.645Z,100.00
2023-04-15T18:55:48.549Z,100.00
2023-04-15T18:58:15.734Z,100.00
2023-04-15T19:00:43.753Z,100.00
2023-04-15T19:03:11.366Z,100.00
2023-04-15T19:05:38.255Z,100.00
2023-04-15T19:08:04.932Z,100.00
2023-04-15T19:10:31.680Z,100.00
2023-04-15T19:12:58.422Z,100.00
2023-04-15T19:15:24.907Z,100.00
2023-04-15T19:17:54.507Z,100.00
2023-04-15T19:20:21.194Z,100.00
2023-04-15T19:22:48.653Z,100.00
2023-04-15T19:25:22.852Z,100.00
2023-04-15T19:27:49.330Z,100.00
2023-04-15T19:30:16.505Z,100.00
2023-04-15T19:32:43.347Z,100.00
2023-04-15T19:35:11.596Z,100.00
2023-04-15T19:37:38.644Z,100.00
2023-04-15T19:40:06.063Z,100.00
2023-04-15T19:42:32.855Z,100.00
2023-04-15T19:44:59.612Z,100.00
2023-04-15T19:47:27.809Z,100.00
2023-04-15T19:49:54.570Z,100.00
2023-04-15T19:52:22.315Z,100.00
2023-04-15T19:54:49.284Z,100.00
2023-04-15T19:57:15.865Z,100.00
2023-04-15T19:59:42.446Z,100.00
2023-04-15T20:02:09.313Z,100.00
2023-04-15T20:04:36.281Z,100.00
2023-04-15T20:07:02.911Z,100.00
2023-04-15T20:09:29.440Z,100.00
2023-04-15T20:12:47.477Z,100.00
2023-04-15T20:14:43.217Z,100.00
2023-04-15T20:17:10.127Z,100.00
2023-04-15T20:19:39.587Z,100.00
2023-04-15T20:22:06.232Z,100.00
2023-04-15T20:24:32.941Z,100.00
2023-04-15T20:26:59.475Z,100.00
2023-04-15T20:29:26.650Z,100.00
2023-04-15T20:31:53.270Z,100.00
2023-04-15T20:34:19.786Z,100.00
2023-04-15T20:36:46.323Z,100.00
2023-04-15T20:39:15.870Z,100.00
2023-04-15T20:41:42.600Z,100.00
2023-04-15T20:44:09.434Z,100.00
2023-04-15T20:46:39.404Z,100.00
2023-04-15T20:49:06.297Z,100.00
2023-04-15T20:51:37.517Z,100.00
2023-04-15T20:54:05.073Z,100.00
2023-04-15T20:56:31.829Z,100.00
2023-04-15T20:58:59.963Z,100.00
2023-04-15T21:01:26.642Z,100.00
2023-04-15T21:03:53.270Z,100.00
2023-04-15T21:06:19.800Z,100.00
2023-04-15T21:08:46.509Z,100.00
2023-04-15T21:11:18.874Z,100.00
2023-04-15T21:13:58.651Z,100.00
2023-04-15T21:16:25.355Z,100.00
2023-04-15T21:18:51.959Z,100.00
2023-04-15T21:21:20.986Z,100.00
2023-04-15T21:23:47.545Z,100.00
2023-04-15T21:26:14.295Z,100.00
2023-04-15T21:28:40.975Z,100.00
2023-04-15T21:31:07.709Z,100.00
2023-04-15T21:33:34.143Z,100.00
2023-04-15T21:36:00.770Z,100.00
2023-04-15T21:38:27.352Z,100.00
2023-04-15T21:40:54.339Z,100.00
2023-04-15T21:43:23.108Z,100.00
2023-04-15T21:46:22.892Z,100.00
2023-04-15T21:48:36.598Z,100.00
2023-04-15T21:51:03.527Z,100.00
2023-04-15T21:53:30.075Z,100.00
2023-04-15T21:55:56.844Z,100.00
2023-04-15T21:58:23.689Z,100.00
2023-04-15T22:00:50.320Z,100.00
2023-04-15T22:03:16.961Z,100.00
2023-04-15T22:05:45.997Z,100.00
2023-04-15T22:08:12.593Z,100.00
2023-04-15T22:10:39.722Z,100.00
2023-04-15T22:13:08.734Z,100.00
2023-04-15T22:15:38.633Z,100.00
2023-04-15T22:18:05.972Z,100.00
2023-04-15T22:20:32.567Z,100.00
2023-04-15T22:22:59.258Z,100.00
2023-04-15T22:25:25.993Z,100.00
2023-04-15T22:27:52.521Z,100.00
2023-04-15T22:30:22.025Z,100.00
2023-04-15T22:32:48.575Z,100.00
2023-04-15T22:35:15.432Z,100.00
2023-04-15T22:37:42.210Z,100.00
2023-04-15T22:40:09.298Z,100.00
2023-04-15T22:42:35.963Z,100.00
2023-04-15T22:45:02.663Z,100.00
2023-04-15T22:47:29.518Z,100.00
2023-04-15T22:49:56.104Z,100.00
2023-04-15T22:52:30.022Z,100.00
2023-04-15T22:54:57.296Z,100.00
2023-04-15T22:57:24.002Z,100.00
2023-04-15T22:59:50.479Z,100.00
2023-04-15T23:02:17.444Z,100.00
2023-04-15T23:04:44.246Z,100.00
2023-04-15T23:07:11.346Z,100.00
2023-04-15T23:09:39.007Z,100.00
2023-04-15T23:12:06.239Z,100.00
2023-04-15T23:14:33.024Z,100.00
2023-04-15T23:16:59.494Z,100.00
2023-04-15T23:19:25.987Z,100.00
2023-04-15T23:21:54.246Z,100.00
2023-04-15T23:24:21.088Z,100.00
2023-04-15T23:26:47.584Z,100.00
2023-04-15T23:29:14.268Z,100.00
2023-04-15T23:31:41.725Z,100.00
2023-04-15T23:34:08.490Z,100.00
2023-04-15T23:36:35.322Z,100.00
2023-04-15T23:39:01.998Z,100.00
2023-04-15T23:41:28.836Z,100.00
2023-04-15T23:43:55.354Z,100.00
2023-04-15T23:46:22.122Z,100.00
2023-04-15T23:48:49.146Z,100.00
2023-04-15T23:51:15.976Z,100.00
2023-04-15T23:53:42.572Z,100.00
2023-04-15T23:56:09.148Z,100.00
2023-04-15T23:58:35.643Z,100.00
